sensor_id;sensor_type;location;lat;lon;timestamp;P1;durP1;ratioP1;P2;durP2;ratioP2
48423;SDS011;34232;42.502;26.014;2024-03-02T14:01:54;28.90;;;13.23;;
48423;SDS011;34232;42.502;26.014;2024-03-02T14:04:20;23.90;;;13.80;;
48423;SDS011;34232;42.502;26.014;2024-03-02T14:06:45;26.10;;;14.97;;
48423;SDS011;34232;42.502;26.014;2024-03-02T14:09:11;21.80;;;13.70;;
48423;SDS011;34232;42.502;26.014;2024-03-02T14:11:36;24.40;;;13.80;;
48423;SDS011;34232;42.502;26.014;2024-03-02T14:16:18;21.40;;;12.82;;
48423;SDS011;34232;42.502;26.014;2024-03-02T14:18:43;24.40;;;13.47;;
48423;SDS011;34232;42.502;26.014;2024-03-02T14:21:09;20.97;;;13.90;;
48423;SDS011;34232;42.502;26.014;2024-03-02T14:23:34;21.30;;;13.07;;
48423;SDS011;34232;42.502;26.014;2024-03-02T14:25:59;19.33;;;12.37;;
48423;SDS011;34232;42.502;26.014;2024-03-02T14:28:25;25.27;;;13.63;;
48423;SDS011;34232;42.502;26.014;2024-03-02T14:30:50;29.90;;;15.23;;
48423;SDS011;34232;42.502;26.014;2024-03-02T14:33:16;21.10;;;13.13;;
48423;SDS011;34232;42.502;26.014;2024-03-02T14:35:42;23.93;;;13.90;;
48423;SDS011;34232;42.502;26.014;2024-03-02T14:38:07;20.97;;;13.40;;
48423;SDS011;34232;42.502;26.014;2024-03-02T14:40:33;15.17;;;11.33;;
48423;SDS011;34232;42.502;26.014;2024-03-02T14:42:58;19.63;;;11.70;;
48423;SDS011;34232;42.502;26.014;2024-03-02T14:45:24;21.67;;;12.13;;
48423;SDS011;34232;42.502;26.014;2024-03-02T14:47:49;19.23;;;12.07;;
48423;SDS011;34232;42.502;26.014;2024-03-02T14:50:15;22.08;;;11.98;;
48423;SDS011;34232;42.502;26.014;2024-03-02T14:52:41;20.55;;;12.23;;
48423;SDS011;34232;42.502;26.014;2024-03-02T14:55:07;18.80;;;11.10;;
48423;SDS011;34232;42.502;26.014;2024-03-02T14:57:33;15.47;;;11.27;;
48423;SDS011;34232;42.502;26.014;2024-03-02T14:59:58;23.83;;;12.50;;
48423;SDS011;34232;42.502;26.014;2024-03-02T15:02:24;15.77;;;11.60;;
48423;SDS011;34232;42.502;26.014;2024-03-02T15:04:49;16.77;;;11.37;;
48423;SDS011;34232;42.502;26.014;2024-03-02T15:07:16;21.50;;;12.48;;
48423;SDS011;34232;42.502;26.014;2024-03-02T15:09:41;19.00;;;12.97;;
48423;SDS011;34232;42.502;26.014;2024-03-02T15:12:07;18.67;;;12.13;;
48423;SDS011;34232;42.502;26.014;2024-03-02T15:14:37;21.85;;;12.65;;
48423;SDS011;34232;42.502;26.014;2024-03-02T15:17:03;18.23;;;13.63;;
48423;SDS011;34232;42.502;26.014;2024-03-02T15:19:29;21.77;;;12.07;;
48423;SDS011;34232;42.502;26.014;2024-03-02T15:21:55;20.10;;;13.40;;
48423;SDS011;34232;42.502;26.014;2024-03-02T15:24:20;18.90;;;13.53;;
48423;SDS011;34232;42.502;26.014;2024-03-02T15:26:45;29.33;;;14.40;;
48423;SDS011;34232;42.502;26.014;2024-03-02T15:29:11;25.77;;;14.30;;
48423;SDS011;34232;42.502;26.014;2024-03-02T15:31:36;25.40;;;14.20;;
48423;SDS011;34232;42.502;26.014;2024-03-02T15:34:02;22.10;;;14.90;;
48423;SDS011;34232;42.502;26.014;2024-03-02T15:36:27;24.27;;;15.17;;
48423;SDS011;34232;42.502;26.014;2024-03-02T15:38:53;23.43;;;14.73;;
48423;SDS011;34232;42.502;26.014;2024-03-02T15:41:18;22.27;;;15.50;;
48423;SDS011;34232;42.502;26.014;2024-03-02T15:43:44;25.67;;;15.03;;
48423;SDS011;34232;42.502;26.014;2024-03-02T15:46:09;23.67;;;13.93;;
48423;SDS011;34232;42.502;26.014;2024-03-02T15:48:35;20.97;;;14.70;;
48423;SDS011;34232;42.502;26.014;2024-03-02T15:51:01;22.60;;;13.85;;
48423;SDS011;34232;42.502;26.014;2024-03-02T15:53:29;19.80;;;13.48;;
48423;SDS011;34232;42.502;26.014;2024-03-02T15:55:54;19.00;;;14.13;;
48423;SDS011;34232;42.502;26.014;2024-03-02T15:58:20;19.80;;;12.77;;
48423;SDS011;34232;42.502;26.014;2024-03-02T16:00:45;18.73;;;12.93;;
48423;SDS011;34232;42.502;26.014;2024-03-02T16:03:11;22.73;;;12.63;;
48423;SDS011;34232;42.502;26.014;2024-03-02T16:05:36;17.63;;;12.60;;
48423;SDS011;34232;42.502;26.014;2024-03-02T16:08:02;71.57;;;25.73;;
48423;SDS011;34232;42.502;26.014;2024-03-02T16:10:28;26.10;;;14.57;;
48423;SDS011;34232;42.502;26.014;2024-03-02T16:12:53;25.27;;;13.67;;
48423;SDS011;34232;42.502;26.014;2024-03-02T16:17:46;16.88;;;12.40;;
48423;SDS011;34232;42.502;26.014;2024-03-02T16:20:11;21.33;;;13.03;;
48423;SDS011;34232;42.502;26.014;2024-03-02T16:22:37;21.67;;;13.07;;
48423;SDS011;34232;42.502;26.014;2024-03-02T16:25:02;22.17;;;12.87;;
48423;SDS011;34232;42.502;26.014;2024-03-02T16:27:29;22.35;;;12.77;;
48423;SDS011;34232;42.502;26.014;2024-03-02T16:29:55;25.03;;;13.10;;
48423;SDS011;34232;42.502;26.014;2024-03-02T16:32:22;17.77;;;12.63;;
48423;SDS011;34232;42.502;26.014;2024-03-02T16:34:48;24.80;;;13.37;;
48423;SDS011;34232;42.502;26.014;2024-03-02T16:37:13;23.10;;;12.33;;
48423;SDS011;34232;42.502;26.014;2024-03-02T16:39:39;24.57;;;13.30;;
48423;SDS011;34232;42.502;26.014;2024-03-02T16:42:04;21.30;;;12.93;;
48423;SDS011;34232;42.502;26.014;2024-03-02T16:44:30;21.40;;;12.67;;
48423;SDS011;34232;42.502;26.014;2024-03-02T16:46:55;21.53;;;12.67;;
48423;SDS011;34232;42.502;26.014;2024-03-02T16:49:21;21.60;;;11.67;;
48423;SDS011;34232;42.502;26.014;2024-03-02T16:51:46;21.10;;;12.83;;
48423;SDS011;34232;42.502;26.014;2024-03-02T16:54:12;20.53;;;13.07;;
48423;SDS011;34232;42.502;26.014;2024-03-02T16:56:40;27.37;;;13.67;;
48423;SDS011;34232;42.502;26.014;2024-03-02T16:59:07;19.85;;;13.40;;
48423;SDS011;34232;42.502;26.014;2024-03-02T17:01:33;21.07;;;12.60;;
48423;SDS011;34232;42.502;26.014;2024-03-02T17:03:58;18.27;;;11.37;;
48423;SDS011;34232;42.502;26.014;2024-03-02T17:06:24;21.60;;;12.27;;
48423;SDS011;34232;42.502;26.014;2024-03-02T17:08:49;27.10;;;13.57;;
48423;SDS011;34232;42.502;26.014;2024-03-02T17:11:15;18.77;;;11.60;;
48423;SDS011;34232;42.502;26.014;2024-03-02T17:13:40;18.63;;;11.93;;
48423;SDS011;34232;42.502;26.014;2024-03-02T17:16:06;23.43;;;13.43;;
48423;SDS011;34232;42.502;26.014;2024-03-02T17:18:32;19.30;;;11.57;;
48423;SDS011;34232;42.502;26.014;2024-03-02T17:20:57;19.43;;;12.17;;
48423;SDS011;34232;42.502;26.014;2024-03-02T17:23:23;19.87;;;11.67;;
48423;SDS011;34232;42.502;26.014;2024-03-02T17:25:48;18.73;;;11.60;;
48423;SDS011;34232;42.502;26.014;2024-03-02T17:28:23;19.13;;;11.77;;
48423;SDS011;34232;42.502;26.014;2024-03-02T17:30:50;21.02;;;12.05;;
48423;SDS011;34232;42.502;26.014;2024-03-02T17:33:19;18.38;;;12.13;;
48423;SDS011;34232;42.502;26.014;2024-03-02T17:35:44;13.87;;;11.07;;
48423;SDS011;34232;42.502;26.014;2024-03-02T17:38:12;22.80;;;13.48;;
48423;SDS011;34232;42.502;26.014;2024-03-02T17:40:38;19.17;;;12.40;;
48423;SDS011;34232;42.502;26.014;2024-03-02T17:43:03;25.07;;;13.10;;
48423;SDS011;34232;42.502;26.014;2024-03-02T17:45:29;24.53;;;14.57;;
48423;SDS011;34232;42.502;26.014;2024-03-02T17:47:55;25.77;;;14.40;;
48423;SDS011;34232;42.502;26.014;2024-03-02T17:50:20;23.20;;;14.40;;
48423;SDS011;34232;42.502;26.014;2024-03-02T17:52:46;21.93;;;14.10;;
48423;SDS011;34232;42.502;26.014;2024-03-02T17:55:12;22.67;;;13.93;;
48423;SDS011;34232;42.502;26.014;2024-03-02T17:57:38;20.67;;;12.63;;
48423;SDS011;34232;42.502;26.014;2024-03-02T18:00:04;26.90;;;13.50;;
48423;SDS011;34232;42.502;26.014;2024-03-02T18:02:30;21.50;;;15.02;;
48423;SDS011;34232;42.502;26.014;2024-03-02T18:04:58;22.35;;;14.05;;
48423;SDS011;34232;42.502;26.014;2024-03-02T18:07:24;25.50;;;14.10;;
48423;SDS011;34232;42.502;26.014;2024-03-02T18:09:49;19.93;;;12.47;;
48423;SDS011;34232;42.502;26.014;2024-03-02T18:12:15;20.63;;;13.63;;
48423;SDS011;34232;42.502;26.014;2024-03-02T18:14:40;25.17;;;13.87;;
48423;SDS011;34232;42.502;26.014;2024-03-02T18:17:06;28.07;;;15.20;;
48423;SDS011;34232;42.502;26.014;2024-03-02T18:19:31;22.97;;;13.30;;
48423;SDS011;34232;42.502;26.014;2024-03-02T18:21:57;20.93;;;13.30;;
48423;SDS011;34232;42.502;26.014;2024-03-02T18:24:22;26.40;;;12.97;;
48423;SDS011;34232;42.502;26.014;2024-03-02T18:26:51;24.33;;;13.50;;
48423;SDS011;34232;42.502;26.014;2024-03-02T18:29:16;23.73;;;12.73;;
48423;SDS011;34232;42.502;26.014;2024-03-02T18:31:42;25.47;;;13.67;;
48423;SDS011;34232;42.502;26.014;2024-03-02T18:34:08;26.52;;;13.93;;
48423;SDS011;34232;42.502;26.014;2024-03-02T18:36:34;19.67;;;12.93;;
48423;SDS011;34232;42.502;26.014;2024-03-02T18:38:59;22.47;;;12.73;;
48423;SDS011;34232;42.502;26.014;2024-03-02T18:41:25;23.63;;;12.77;;
48423;SDS011;34232;42.502;26.014;2024-03-02T18:43:50;17.47;;;13.03;;
48423;SDS011;34232;42.502;26.014;2024-03-02T18:46:16;27.03;;;12.30;;
48423;SDS011;34232;42.502;26.014;2024-03-02T18:48:43;23.95;;;11.48;;
48423;SDS011;34232;42.502;26.014;2024-03-02T18:51:09;26.17;;;11.57;;
48423;SDS011;34232;42.502;26.014;2024-03-02T18:53:34;24.30;;;11.07;;
48423;SDS011;34232;42.502;26.014;2024-03-02T18:58:29;13.77;;;8.52;;
48423;SDS011;34232;42.502;26.014;2024-03-02T19:00:55;20.88;;;9.10;;
48423;SDS011;34232;42.502;26.014;2024-03-02T19:03:20;20.93;;;9.73;;
48423;SDS011;34232;42.502;26.014;2024-03-02T19:05:46;18.37;;;9.13;;
48423;SDS011;34232;42.502;26.014;2024-03-02T19:08:11;14.90;;;8.30;;
48423;SDS011;34232;42.502;26.014;2024-03-02T19:10:42;18.80;;;10.25;;
48423;SDS011;34232;42.502;26.014;2024-03-02T19:13:08;13.50;;;8.80;;
48423;SDS011;34232;42.502;26.014;2024-03-02T19:15:33;22.10;;;9.83;;
48423;SDS011;34232;42.502;26.014;2024-03-02T19:17:58;18.10;;;9.40;;
48423;SDS011;34232;42.502;26.014;2024-03-02T19:20:24;20.97;;;9.53;;
48423;SDS011;34232;42.502;26.014;2024-03-02T19:22:49;21.07;;;9.40;;
48423;SDS011;34232;42.502;26.014;2024-03-02T19:25:15;18.73;;;9.17;;
48423;SDS011;34232;42.502;26.014;2024-03-02T19:27:41;13.43;;;7.90;;
48423;SDS011;34232;42.502;26.014;2024-03-02T19:30:06;16.17;;;7.83;;
48423;SDS011;34232;42.502;26.014;2024-03-02T19:32:33;16.10;;;8.55;;
48423;SDS011;34232;42.502;26.014;2024-03-02T19:34:59;15.18;;;8.10;;
48423;SDS011;34232;42.502;26.014;2024-03-02T19:37:25;16.67;;;9.53;;
48423;SDS011;34232;42.502;26.014;2024-03-02T19:39:50;17.38;;;8.80;;
48423;SDS011;34232;42.502;26.014;2024-03-02T19:42:16;14.20;;;8.80;;
48423;SDS011;34232;42.502;26.014;2024-03-02T19:44:41;11.77;;;7.17;;
48423;SDS011;34232;42.502;26.014;2024-03-02T19:47:08;13.93;;;7.68;;
48423;SDS011;34232;42.502;26.014;2024-03-02T19:49:36;14.43;;;7.75;;
48423;SDS011;34232;42.502;26.014;2024-03-02T19:52:02;13.53;;;7.50;;
48423;SDS011;34232;42.502;26.014;2024-03-02T19:54:27;17.00;;;7.95;;
48423;SDS011;34232;42.502;26.014;2024-03-02T19:56:53;15.83;;;7.20;;
48423;SDS011;34232;42.502;26.014;2024-03-02T19:59:20;12.10;;;6.35;;
48423;SDS011;34232;42.502;26.014;2024-03-02T20:01:46;15.83;;;6.70;;
48423;SDS011;34232;42.502;26.014;2024-03-02T20:04:12;13.30;;;6.80;;
48423;SDS011;34232;42.502;26.014;2024-03-02T20:06:37;15.60;;;6.90;;
48423;SDS011;34232;42.502;26.014;2024-03-02T20:09:06;11.18;;;6.50;;
48423;SDS011;34232;42.502;26.014;2024-03-02T20:11:31;12.70;;;6.47;;
48423;SDS011;34232;42.502;26.014;2024-03-02T20:13:58;14.57;;;6.63;;
48423;SDS011;34232;42.502;26.014;2024-03-02T20:16:24;15.90;;;7.95;;
48423;SDS011;34232;42.502;26.014;2024-03-02T20:18:50;12.33;;;6.90;;
48423;SDS011;34232;42.502;26.014;2024-03-02T20:21:16;14.97;;;6.50;;
48423;SDS011;34232;42.502;26.014;2024-03-02T20:23:41;15.67;;;6.50;;
48423;SDS011;34232;42.502;26.014;2024-03-02T20:26:07;13.10;;;5.60;;
48423;SDS011;34232;42.502;26.014;2024-03-02T20:28:33;13.23;;;6.30;;
48423;SDS011;34232;42.502;26.014;2024-03-02T20:30:59;11.57;;;5.73;;
48423;SDS011;34232;42.502;26.014;2024-03-02T20:33:25;11.93;;;6.35;;
48423;SDS011;34232;42.502;26.014;2024-03-02T20:35:50;18.20;;;7.27;;
48423;SDS011;34232;42.502;26.014;2024-03-02T20:38:16;13.23;;;6.00;;
48423;SDS011;34232;42.502;26.014;2024-03-02T20:40:41;11.83;;;6.27;;
48423;SDS011;34232;42.502;26.014;2024-03-02T20:43:09;14.57;;;5.97;;
48423;SDS011;34232;42.502;26.014;2024-03-02T20:45:36;16.55;;;5.97;;
48423;SDS011;34232;42.502;26.014;2024-03-02T20:48:01;11.23;;;6.53;;
48423;SDS011;34232;42.502;26.014;2024-03-02T20:50:28;13.48;;;5.47;;
48423;SDS011;34232;42.502;26.014;2024-03-02T20:52:53;20.17;;;6.67;;
48423;SDS011;34232;42.502;26.014;2024-03-02T20:55:21;14.32;;;5.90;;
48423;SDS011;34232;42.502;26.014;2024-03-02T20:57:48;13.98;;;6.03;;
48423;SDS011;34232;42.502;26.014;2024-03-02T21:00:13;11.07;;;5.57;;
48423;SDS011;34232;42.502;26.014;2024-03-02T21:02:39;9.93;;;5.80;;
48423;SDS011;34232;42.502;26.014;2024-03-02T21:05:04;12.07;;;5.43;;
48423;SDS011;34232;42.502;26.014;2024-03-02T21:07:31;12.60;;;4.57;;
48423;SDS011;34232;42.502;26.014;2024-03-02T21:09:59;16.27;;;5.32;;
48423;SDS011;34232;42.502;26.014;2024-03-02T21:12:25;7.37;;;5.30;;
48423;SDS011;34232;42.502;26.014;2024-03-02T21:14:52;13.73;;;5.28;;
48423;SDS011;34232;42.502;26.014;2024-03-02T21:17:17;10.83;;;5.30;;
48423;SDS011;34232;42.502;26.014;2024-03-02T21:19:42;11.50;;;5.20;;
48423;SDS011;34232;42.502;26.014;2024-03-02T21:22:08;8.53;;;4.77;;
48423;SDS011;34232;42.502;26.014;2024-03-02T21:24:33;10.60;;;6.27;;
48423;SDS011;34232;42.502;26.014;2024-03-02T21:27:00;18.98;;;7.57;;
48423;SDS011;34232;42.502;26.014;2024-03-02T21:29:26;13.03;;;5.43;;
48423;SDS011;34232;42.502;26.014;2024-03-02T21:31:51;12.07;;;5.13;;
48423;SDS011;34232;42.502;26.014;2024-03-02T21:34:20;15.98;;;5.95;;
48423;SDS011;34232;42.502;26.014;2024-03-02T21:36:45;9.87;;;5.03;;
48423;SDS011;34232;42.502;26.014;2024-03-02T21:39:11;12.03;;;5.73;;
48423;SDS011;34232;42.502;26.014;2024-03-02T21:41:36;7.23;;;5.00;;
48423;SDS011;34232;42.502;26.014;2024-03-02T21:44:02;14.30;;;7.40;;
48423;SDS011;34232;42.502;26.014;2024-03-02T21:46:27;12.83;;;7.03;;
48423;SDS011;34232;42.502;26.014;2024-03-02T21:48:53;16.27;;;7.60;;
48423;SDS011;34232;42.502;26.014;2024-03-02T21:51:18;14.00;;;6.37;;
48423;SDS011;34232;42.502;26.014;2024-03-02T21:53:44;14.03;;;5.97;;
48423;SDS011;34232;42.502;26.014;2024-03-02T21:56:11;12.15;;;6.03;;
48423;SDS011;34232;42.502;26.014;2024-03-02T21:58:40;11.60;;;5.60;;
48423;SDS011;34232;42.502;26.014;2024-03-02T22:01:06;12.60;;;5.73;;
48423;SDS011;34232;42.502;26.014;2024-03-02T22:03:32;16.33;;;5.43;;
48423;SDS011;34232;42.502;26.014;2024-03-02T22:05:57;11.00;;;4.90;;
48423;SDS011;34232;42.502;26.014;2024-03-02T22:08:23;13.07;;;5.43;;
48423;SDS011;34232;42.502;26.014;2024-03-02T22:10:48;11.13;;;5.67;;
48423;SDS011;34232;42.502;26.014;2024-03-02T22:13:14;10.53;;;5.87;;
48423;SDS011;34232;42.502;26.014;2024-03-02T22:15:39;10.00;;;5.77;;
48423;SDS011;34232;42.502;26.014;2024-03-02T22:18:04;11.63;;;5.77;;
48423;SDS011;34232;42.502;26.014;2024-03-02T22:20:30;13.73;;;5.37;;
48423;SDS011;34232;42.502;26.014;2024-03-02T22:22:55;8.10;;;5.07;;
48423;SDS011;34232;42.502;26.014;2024-03-02T22:25:21;13.90;;;5.47;;
48423;SDS011;34232;42.502;26.014;2024-03-02T22:27:46;11.37;;;5.87;;
48423;SDS011;34232;42.502;26.014;2024-03-02T22:30:19;8.45;;;4.80;;
48423;SDS011;34232;42.502;26.014;2024-03-02T22:32:44;11.53;;;7.00;;
48423;SDS011;34232;42.502;26.014;2024-03-02T22:35:10;11.50;;;5.63;;
48423;SDS011;34232;42.502;26.014;2024-03-02T22:37:35;11.73;;;5.03;;
48423;SDS011;34232;42.502;26.014;2024-03-02T22:40:01;13.53;;;5.23;;
48423;SDS011;34232;42.502;26.014;2024-03-02T22:42:26;11.23;;;5.03;;
48423;SDS011;34232;42.502;26.014;2024-03-02T22:44:52;11.17;;;6.20;;
48423;SDS011;34232;42.502;26.014;2024-03-02T22:47:18;17.00;;;6.07;;
48423;SDS011;34232;42.502;26.014;2024-03-02T22:49:43;14.70;;;5.67;;
48423;SDS011;34232;42.502;26.014;2024-03-02T22:52:08;11.27;;;6.13;;
48423;SDS011;34232;42.502;26.014;2024-03-02T22:54:34;10.13;;;6.20;;
48423;SDS011;34232;42.502;26.014;2024-03-02T22:56:59;15.73;;;7.77;;
48423;SDS011;34232;42.502;26.014;2024-03-02T22:59:26;11.75;;;6.60;;
48423;SDS011;34232;42.502;26.014;2024-03-02T23:01:51;20.07;;;9.27;;
48423;SDS011;34232;42.502;26.014;2024-03-02T23:04:16;16.40;;;7.73;;
48423;SDS011;34232;42.502;26.014;2024-03-02T23:06:42;8.87;;;5.80;;
48423;SDS011;34232;42.502;26.014;2024-03-02T23:09:07;12.20;;;6.93;;
48423;SDS011;34232;42.502;26.014;2024-03-02T23:11:33;9.10;;;5.00;;
48423;SDS011;34232;42.502;26.014;2024-03-02T23:13:59;16.77;;;7.23;;
48423;SDS011;34232;42.502;26.014;2024-03-02T23:16:24;17.80;;;6.93;;
48423;SDS011;34232;42.502;26.014;2024-03-02T23:18:52;10.80;;;5.72;;
48423;SDS011;34232;42.502;26.014;2024-03-02T23:21:17;14.50;;;6.43;;
48423;SDS011;34232;42.502;26.014;2024-03-02T23:23:42;14.60;;;6.30;;
48423;SDS011;34232;42.502;26.014;2024-03-02T23:26:08;14.13;;;5.77;;
48423;SDS011;34232;42.502;26.014;2024-03-02T23:28:33;10.07;;;5.37;;
48423;SDS011;34232;42.502;26.014;2024-03-02T23:30:59;15.80;;;6.57;;
48423;SDS011;34232;42.502;26.014;2024-03-02T23:33:24;17.07;;;8.40;;
48423;SDS011;34232;42.502;26.014;2024-03-02T23:35:50;11.97;;;7.50;;
48423;SDS011;34232;42.502;26.014;2024-03-02T23:38:15;22.57;;;11.13;;
48423;SDS011;34232;42.502;26.014;2024-03-02T23:40:40;23.90;;;10.77;;
48423;SDS011;34232;42.502;26.014;2024-03-02T23:43:22;16.25;;;9.35;;
48423;SDS011;34232;42.502;26.014;2024-03-02T23:45:47;12.23;;;8.80;;
48423;SDS011;34232;42.502;26.014;2024-03-02T23:48:13;22.37;;;9.83;;
48423;SDS011;34232;42.502;26.014;2024-03-02T23:50:38;13.37;;;9.40;;
48423;SDS011;34232;42.502;26.014;2024-03-02T23:53:04;12.70;;;8.03;;
48423;SDS011;34232;42.502;26.014;2024-03-02T23:55:29;12.50;;;8.03;;
48423;SDS011;34232;42.502;26.014;2024-03-02T23:57:55;15.23;;;7.27;;
